createdAt,value
2023-04-08T00:01:18.460Z,97056.00
2023-04-08T00:03:45.514Z,97054.00
2023-04-08T00:06:12.451Z,97071.00
2023-04-08T00:08:39.227Z,97066.00
2023-04-08T00:11:06.346Z,97064.00
2023-04-08T00:13:33.267Z,97068.00
2023-04-08T00:16:00.191Z,97064.00
2023-04-08T00:18:27.231Z,97063.00
2023-04-08T00:20:54.244Z,97060.00
2023-04-08T00:23:21.422Z,97064.00
2023-04-08T00:25:48.340Z,97060.00
2023-04-08T00:28:15.399Z,97067.00
2023-04-08T00:30:42.203Z,97062.00
2023-04-08T00:33:09.139Z,97064.00
2023-04-08T00:35:35.979Z,97063.00
2023-04-08T00:38:03.395Z,97068.00
2023-04-08T00:40:30.288Z,97068.00
2023-04-08T00:42:58.359Z,97076.00
2023-04-08T00:45:26.367Z,97075.00
2023-04-08T00:47:53.389Z,97069.00
2023-04-08T00:50:20.391Z,97068.00
2023-04-08T00:52:47.382Z,97063.00
2023-04-08T00:55:14.254Z,97066.00
2023-04-08T00:57:41.759Z,97077.00
2023-04-08T01:00:09.671Z,97064.00
2023-04-08T01:03:14.809Z,97066.00
2023-04-08T01:05:56.568Z,97072.00
2023-04-08T01:08:27.453Z,97069.00
2023-04-08T01:10:59.429Z,97067.00
2023-04-08T01:13:28.972Z,97075.00
2023-04-08T01:15:56.424Z,97070.00
2023-04-08T01:18:24.311Z,97062.00
2023-04-08T01:20:52.163Z,97064.00
2023-04-08T01:23:58.837Z,97058.00
2023-04-08T01:26:26.886Z,97062.00
2023-04-08T01:29:01.021Z,97062.00
2023-04-08T01:31:28.452Z,97062.00
2023-04-08T01:33:56.415Z,97060.00
2023-04-08T01:36:26.128Z,97065.00
2023-04-08T01:38:52.935Z,97056.00
2023-04-08T01:41:21.381Z,97044.00
2023-04-08T01:43:49.880Z,97054.00
2023-04-08T01:46:17.523Z,97051.00
2023-04-08T01:48:45.886Z,97040.00
2023-04-08T01:51:13.141Z,97044.00
2023-04-08T01:53:40.129Z,97047.00
2023-04-08T01:56:12.302Z,97045.00
2023-04-08T01:58:43.320Z,97048.00
2023-04-08T02:01:14.057Z,97053.00
2023-04-08T02:03:44.793Z,97055.00
2023-04-08T02:06:11.678Z,97055.00
2023-04-08T02:08:38.607Z,97052.00
2023-04-08T02:11:05.522Z,97044.00
2023-04-08T02:13:33.190Z,97051.00
2023-04-08T02:16:26.846Z,97052.00
2023-04-08T02:19:02.721Z,97052.00
2023-04-08T02:21:46.257Z,97051.00
2023-04-08T02:24:17.412Z,97041.00
2023-04-08T02:26:45.657Z,97058.00
2023-04-08T02:29:15.801Z,97054.00
2023-04-08T02:31:44.147Z,97059.00
2023-04-08T02:34:11.988Z,97060.00
2023-04-08T02:36:40.954Z,97051.00
2023-04-08T02:39:07.860Z,97062.00
2023-04-08T02:41:34.801Z,97070.00
2023-04-08T02:44:01.601Z,97063.00
2023-04-08T02:46:28.419Z,97067.00
2023-04-08T02:48:55.376Z,97074.00
2023-04-08T02:51:22.161Z,97072.00
2023-04-08T02:53:48.962Z,97083.00
2023-04-08T02:56:15.731Z,97072.00
2023-04-08T02:58:42.618Z,97073.00
2023-04-08T03:01:09.561Z,97084.00
2023-04-08T03:03:36.707Z,97087.00
2023-04-08T03:06:03.727Z,97078.00
2023-04-08T03:08:30.592Z,97084.00
2023-04-08T03:10:57.400Z,97080.00
2023-04-08T03:13:24.182Z,97097.00
2023-04-08T03:15:51.200Z,97090.00
2023-04-08T03:18:18.030Z,97098.00
2023-04-08T03:20:44.904Z,97091.00
2023-04-08T03:23:11.735Z,97091.00
2023-04-08T03:25:38.621Z,97088.00
2023-04-08T03:28:05.581Z,97092.00
2023-04-08T03:30:32.520Z,97094.00
2023-04-08T03:32:59.425Z,97097.00
2023-04-08T03:35:26.293Z,97097.00
2023-04-08T03:37:54.504Z,97096.00
2023-04-08T03:40:21.457Z,97096.00
2023-04-08T03:42:48.231Z,97098.00
2023-04-08T03:45:15.249Z,97096.00
2023-04-08T03:47:42.234Z,97096.00
2023-04-08T03:50:09.806Z,97102.00
2023-04-08T03:52:36.645Z,97100.00
2023-04-08T03:55:03.556Z,97103.00
2023-04-08T03:57:30.445Z,97104.00
2023-04-08T03:59:57.930Z,97117.00
2023-04-08T04:02:24.998Z,97104.00
2023-04-08T04:04:52.053Z,97110.00
2023-04-08T04:07:18.876Z,97122.00
2023-04-08T04:09:46.065Z,97113.00
2023-04-08T04:12:12.855Z,97120.00
2023-04-08T04:14:39.770Z,97124.00
2023-04-08T04:17:06.677Z,97130.00
2023-04-08T04:19:33.437Z,97124.00
2023-04-08T04:22:00.182Z,97132.00
2023-04-08T04:24:26.906Z,97135.00
2023-04-08T04:26:53.685Z,97129.00
2023-04-08T04:29:20.544Z,97129.00
2023-04-08T04:31:47.309Z,97135.00
2023-04-08T04:34:14.111Z,97147.00
2023-04-08T04:36:41.494Z,97144.00
2023-04-08T04:39:08.456Z,97133.00
2023-04-08T04:41:39.071Z,97132.00
2023-04-08T04:44:06.846Z,97145.00
2023-04-08T04:46:33.843Z,97140.00
2023-04-08T04:49:00.868Z,97146.00
2023-04-08T04:51:27.950Z,97148.00
2023-04-08T04:53:54.807Z,97145.00
2023-04-08T04:56:21.594Z,97153.00
2023-04-08T04:58:48.850Z,97158.00
2023-04-08T05:01:16.228Z,97165.00
2023-04-08T05:03:43.109Z,97153.00
2023-04-08T05:06:09.946Z,97151.00
2023-04-08T05:08:36.745Z,97164.00
2023-04-08T05:11:03.573Z,97161.00
2023-04-08T05:13:30.383Z,97160.00
2023-04-08T05:15:57.213Z,97162.00
2023-04-08T05:18:23.990Z,97165.00
2023-04-08T05:20:50.842Z,97162.00
2023-04-08T05:23:17.778Z,97168.00
2023-04-08T05:25:44.562Z,97172.00
2023-04-08T05:28:11.422Z,97184.00
2023-04-08T05:30:38.212Z,97193.00
2023-04-08T05:33:05.098Z,97189.00
2023-04-08T05:35:32.058Z,97194.00
2023-04-08T05:37:58.925Z,97195.00
2023-04-08T05:40:25.740Z,97189.00
2023-04-08T05:42:52.519Z,97183.00
2023-04-08T05:45:19.356Z,97181.00
2023-04-08T05:47:46.250Z,97184.00
2023-04-08T05:50:13.212Z,97188.00
2023-04-08T05:52:44.977Z,97192.00
2023-04-08T05:55:13.261Z,97187.00
2023-04-08T05:57:41.177Z,97183.00
2023-04-08T06:00:10.503Z,97181.00
2023-04-08T06:02:38.342Z,97197.00
2023-04-08T06:05:06.111Z,97197.00
2023-04-08T06:07:34.046Z,97196.00
2023-04-08T06:10:00.935Z,97205.00
2023-04-08T06:12:27.726Z,97204.00
2023-04-08T06:14:56.193Z,97208.00
2023-04-08T06:17:23.243Z,97204.00
2023-04-08T06:19:50.246Z,97213.00
2023-04-08T06:22:17.062Z,97211.00
2023-04-08T06:24:43.813Z,97214.00
2023-04-08T06:27:10.598Z,97210.00
2023-04-08T06:29:37.444Z,97206.00
2023-04-08T06:32:05.970Z,97207.00
2023-04-08T06:34:32.878Z,97206.00
2023-04-08T06:36:59.708Z,97214.00
2023-04-08T06:39:26.552Z,97221.00
2023-04-08T06:41:54.547Z,97221.00
2023-04-08T06:44:21.402Z,97222.00
2023-04-08T06:46:48.195Z,97230.00
2023-04-08T06:49:16.131Z,97227.00
2023-04-08T06:51:42.934Z,97234.00
2023-04-08T06:54:12.561Z,97236.00
2023-04-08T06:56:39.429Z,97234.00
2023-04-08T06:59:06.297Z,97240.00
2023-04-08T07:01:33.445Z,97245.00
2023-04-08T07:04:02.209Z,97248.00
2023-04-08T07:06:29.131Z,97244.00
2023-04-08T07:08:56.346Z,97248.00
2023-04-08T07:11:23.141Z,97253.00
2023-04-08T07:13:49.912Z,97257.00
2023-04-08T07:16:16.775Z,97248.00
2023-04-08T07:18:43.950Z,97243.00
2023-04-08T07:21:10.749Z,97254.00
2023-04-08T07:23:37.554Z,97261.00
2023-04-08T07:26:05.344Z,97255.00
2023-04-08T07:28:32.651Z,97264.00
2023-04-08T07:31:10.807Z,97266.00
2023-04-08T07:33:37.659Z,97265.00
2023-04-08T07:36:04.587Z,97274.00
2023-04-08T07:38:31.617Z,97269.00
2023-04-08T07:40:58.398Z,97267.00
2023-04-08T07:43:25.133Z,97277.00
2023-04-08T07:45:53.093Z,97274.00
2023-04-08T07:48:20.558Z,97274.00
2023-04-08T07:51:08.846Z,97279.00
2023-04-08T07:53:34.475Z,97276.00
2023-04-08T07:56:04.071Z,97276.00
2023-04-08T07:58:32.084Z,97276.00
2023-04-08T08:00:59.459Z,97275.00
2023-04-08T08:03:26.519Z,97281.00
2023-04-08T08:05:53.438Z,97289.00
2023-04-08T08:08:20.275Z,97295.00
2023-04-08T08:10:47.104Z,97302.00
2023-04-08T08:13:17.077Z,97296.00
2023-04-08T08:15:43.960Z,97296.00
2023-04-08T08:18:10.926Z,97295.00
2023-04-08T08:20:37.754Z,97300.00
2023-04-08T08:23:04.534Z,97296.00
2023-04-08T08:25:31.365Z,97296.00
2023-04-08T08:27:58.199Z,97300.00
2023-04-08T08:30:26.464Z,97301.00
2023-04-08T08:32:53.415Z,97305.00
2023-04-08T08:35:20.635Z,97309.00
2023-04-08T08:37:47.691Z,97302.00
2023-04-08T08:40:15.390Z,97303.00
2023-04-08T08:42:43.605Z,97301.00
2023-04-08T08:45:10.936Z,97305.00
2023-04-08T08:47:37.714Z,97311.00
2023-04-08T08:50:05.160Z,97304.00
2023-04-08T08:52:32.186Z,97310.00
2023-04-08T08:54:59.879Z,97315.00
2023-04-08T08:57:27.228Z,97308.00
2023-04-08T08:59:54.343Z,97318.00
2023-04-08T09:02:30.000Z,97320.00
2023-04-08T09:05:03.285Z,97318.00
2023-04-08T09:07:32.338Z,97322.00
2023-04-08T09:09:59.879Z,97324.00
2023-04-08T09:12:28.503Z,97332.00
2023-04-08T09:15:07.079Z,97331.00
2023-04-08T09:17:40.158Z,97325.00
2023-04-08T09:20:11.837Z,97334.00
2023-04-08T09:22:58.982Z,97335.00
2023-04-08T09:25:28.894Z,97329.00
2023-04-08T09:27:55.755Z,97324.00
2023-04-08T09:30:24.768Z,97333.00
2023-04-08T09:32:55.033Z,97342.00
2023-04-08T09:35:23.384Z,97342.00
2023-04-08T09:37:50.988Z,97330.00
2023-04-08T09:40:18.846Z,97342.00
2023-04-08T09:42:50.545Z,97338.00
2023-04-08T09:45:18.732Z,97342.00
2023-04-08T09:48:16.237Z,97346.00
2023-04-08T09:50:54.383Z,97339.00
2023-04-08T09:53:37.050Z,97339.00
2023-04-08T09:56:11.022Z,97338.00
2023-04-08T09:59:10.908Z,97341.00
2023-04-08T10:01:51.263Z,97350.00
2023-04-08T10:04:21.824Z,97347.00
2023-04-08T10:07:04.501Z,97350.00
2023-04-08T10:09:32.746Z,97347.00
2023-04-08T10:11:59.799Z,97356.00
2023-04-08T10:14:28.750Z,97347.00
2023-04-08T10:17:28.368Z,97349.00
2023-04-08T10:19:55.676Z,97359.00
2023-04-08T10:22:34.809Z,97359.00
2023-04-08T10:25:43.511Z,97356.00
2023-04-08T10:28:18.041Z,97357.00
2023-04-08T10:30:55.826Z,97370.00
2023-04-08T10:33:36.084Z,97363.00
2023-04-08T10:36:12.154Z,97366.00
2023-04-08T10:38:42.969Z,97376.00
2023-04-08T10:41:21.563Z,97360.00
2023-04-08T10:43:48.600Z,97378.00
2023-04-08T10:46:15.656Z,97370.00
2023-04-08T10:48:42.420Z,97370.00
2023-04-08T10:51:09.344Z,97379.00
2023-04-08T10:53:39.170Z,97379.00
2023-04-08T10:56:17.059Z,97363.00
2023-04-08T10:58:56.318Z,97373.00
2023-04-08T11:01:23.856Z,97370.00
2023-04-08T11:03:51.483Z,97372.00
2023-04-08T11:06:19.537Z,97375.00
2023-04-08T11:08:47.219Z,97368.00
2023-04-08T11:11:15.345Z,97372.00
2023-04-08T11:13:52.801Z,97370.00
2023-04-08T11:16:22.532Z,97362.00
2023-04-08T11:18:51.172Z,97366.00
2023-04-08T11:21:18.261Z,97376.00
2023-04-08T11:23:45.158Z,97371.00
2023-04-08T11:26:13.662Z,97376.00
2023-04-08T11:28:40.574Z,97365.00
2023-04-08T11:31:08.892Z,97371.00
2023-04-08T11:33:36.314Z,97381.00
2023-04-08T11:36:08.268Z,97380.00
2023-04-08T11:38:40.860Z,97376.00
2023-04-08T11:41:07.958Z,97383.00
2023-04-08T11:43:36.604Z,97382.00
2023-04-08T11:46:11.538Z,97385.00
2023-04-08T11:48:39.332Z,97376.00
2023-04-08T11:51:12.246Z,97386.00
2023-04-08T11:53:39.024Z,97387.00
2023-04-08T11:56:44.833Z,97387.00
2023-04-08T11:59:11.685Z,97386.00
2023-04-08T12:01:38.539Z,97377.00
2023-04-08T12:04:06.859Z,97387.00
2023-04-08T12:06:33.961Z,97389.00
2023-04-08T12:09:01.048Z,97394.00
2023-04-08T12:11:27.973Z,97399.00
2023-04-08T12:13:54.819Z,97393.00
2023-04-08T12:16:21.678Z,97394.00
2023-04-08T12:18:48.771Z,97399.00
2023-04-08T12:21:15.926Z,97407.00
2023-04-08T12:23:42.996Z,97399.00
2023-04-08T12:26:10.132Z,97412.00
2023-04-08T12:28:37.413Z,97406.00
2023-04-08T12:31:04.859Z,97406.00
2023-04-08T12:33:31.905Z,97397.00
2023-04-08T12:35:59.365Z,97404.00
2023-04-08T12:38:27.062Z,97404.00
2023-04-08T12:40:54.962Z,97409.00
2023-04-08T12:43:23.482Z,97411.00
2023-04-08T12:45:51.165Z,97399.00
2023-04-08T12:48:18.106Z,97404.00
2023-04-08T12:50:44.994Z,97416.00
2023-04-08T12:53:11.893Z,97416.00
2023-04-08T12:55:38.719Z,97413.00
2023-04-08T12:58:06.078Z,97412.00
2023-04-08T13:00:33.168Z,97418.00
2023-04-08T13:03:00.354Z,97411.00
2023-04-08T13:05:40.158Z,97414.00
2023-04-08T13:08:12.253Z,97413.00
2023-04-08T13:10:39.172Z,97409.00
2023-04-08T13:13:06.886Z,97416.00
2023-04-08T13:15:33.717Z,97416.00
2023-04-08T13:18:00.972Z,97412.00
2023-04-08T13:20:28.235Z,97419.00
2023-04-08T13:22:55.196Z,97406.00
2023-04-08T13:25:22.233Z,97423.00
2023-04-08T13:27:49.061Z,97429.00
2023-04-08T13:30:16.460Z,97419.00
2023-04-08T13:32:43.464Z,97423.00
2023-04-08T13:35:10.829Z,97425.00
2023-04-08T13:37:37.952Z,97422.00
2023-04-08T13:40:06.257Z,97424.00
2023-04-08T13:42:33.184Z,97421.00
2023-04-08T13:45:00.567Z,97416.00
2023-04-08T13:47:28.126Z,97419.00
2023-04-08T13:49:55.135Z,97422.00
2023-04-08T13:52:21.985Z,97421.00
2023-04-08T13:54:48.949Z,97421.00
2023-04-08T13:57:15.803Z,97429.00
2023-04-08T13:59:44.404Z,97427.00
2023-04-08T14:02:13.040Z,97429.00
2023-04-08T14:04:40.266Z,97424.00
2023-04-08T14:07:07.361Z,97426.00
2023-04-08T14:09:34.278Z,97431.00
2023-04-08T14:12:02.107Z,97428.00
2023-04-08T14:14:28.954Z,97433.00
2023-04-08T14:16:55.821Z,97435.00
2023-04-08T14:19:22.912Z,97443.00
2023-04-08T14:21:49.834Z,97431.00
2023-04-08T14:24:16.704Z,97434.00
2023-04-08T14:26:43.620Z,97438.00
2023-04-08T14:29:10.596Z,97440.00
2023-04-08T14:31:37.445Z,97449.00
2023-04-08T14:34:04.987Z,97447.00
2023-04-08T14:36:32.824Z,97438.00
2023-04-08T14:39:00.112Z,97439.00
2023-04-08T14:41:27.073Z,97445.00
2023-04-08T14:43:54.047Z,97443.00
2023-04-08T14:46:21.393Z,97446.00
2023-04-08T14:48:48.567Z,97445.00
2023-04-08T14:51:15.514Z,97453.00
2023-04-08T14:53:42.384Z,97454.00
2023-04-08T14:56:09.381Z,97463.00
2023-04-08T14:58:36.280Z,97464.00
2023-04-08T15:01:03.465Z,97468.00
2023-04-08T15:03:30.349Z,97464.00
2023-04-08T15:05:57.681Z,97458.00
2023-04-08T15:08:24.461Z,97469.00
2023-04-08T15:10:51.461Z,97464.00
2023-04-08T15:13:18.446Z,97465.00
2023-04-08T15:15:45.482Z,97470.00
2023-04-08T15:18:12.349Z,97466.00
2023-04-08T15:20:39.254Z,97468.00
2023-04-08T15:23:06.168Z,97477.00
2023-04-08T15:25:33.038Z,97474.00
2023-04-08T15:27:59.893Z,97484.00
2023-04-08T15:30:27.641Z,97485.00
2023-04-08T15:32:56.955Z,97488.00
2023-04-08T15:35:24.304Z,97489.00
2023-04-08T15:37:51.144Z,97493.00
2023-04-08T15:40:18.167Z,97496.00
2023-04-08T15:42:45.326Z,97491.00
2023-04-08T15:45:12.641Z,97490.00
2023-04-08T15:47:39.622Z,97495.00
2023-04-08T15:50:07.301Z,97499.00
2023-04-08T15:52:35.183Z,97497.00
2023-04-08T15:55:02.786Z,97492.00
2023-04-08T15:57:31.050Z,97490.00
2023-04-08T15:59:57.907Z,97505.00
2023-04-08T16:02:24.870Z,97502.00
2023-04-08T16:04:51.826Z,97500.00
2023-04-08T16:07:18.710Z,97501.00
2023-04-08T16:09:45.696Z,97511.00
2023-04-08T16:12:14.715Z,97523.00
2023-04-08T16:14:41.590Z,97522.00
2023-04-08T16:17:09.066Z,97522.00
2023-04-08T16:19:35.912Z,97514.00
2023-04-08T16:22:02.861Z,97520.00
2023-04-08T16:24:29.805Z,97514.00
2023-04-08T16:26:57.661Z,97515.00
2023-04-08T16:29:24.543Z,97517.00
2023-04-08T16:31:53.282Z,97512.00
2023-04-08T16:34:21.447Z,97513.00
2023-04-08T16:36:48.306Z,97514.00
2023-04-08T16:39:15.440Z,97524.00
2023-04-08T16:41:42.245Z,97529.00
2023-04-08T16:44:09.039Z,97531.00
2023-04-08T16:46:36.781Z,97527.00
2023-04-08T16:49:03.593Z,97510.00
2023-04-08T16:51:30.649Z,97526.00
2023-04-08T16:53:58.972Z,97533.00
2023-04-08T16:56:27.086Z,97528.00
2023-04-08T16:58:54.089Z,97538.00
2023-04-08T17:01:20.970Z,97534.00
2023-04-08T17:03:48.758Z,97533.00
2023-04-08T17:06:15.713Z,97540.00
2023-04-08T17:08:46.001Z,97549.00
2023-04-08T17:11:14.776Z,97551.00
2023-04-08T17:13:44.042Z,97546.00
2023-04-08T17:16:16.709Z,97555.00
2023-04-08T17:18:44.460Z,97557.00
2023-04-08T17:21:12.373Z,97561.00
2023-04-08T17:23:39.332Z,97567.00
2023-04-08T17:26:10.702Z,97564.00
2023-04-08T17:28:37.978Z,97566.00
2023-04-08T17:31:06.793Z,97566.00
2023-04-08T17:33:34.023Z,97575.00
2023-04-08T17:36:01.471Z,97582.00
2023-04-08T17:38:29.447Z,97582.00
2023-04-08T17:40:56.505Z,97574.00
2023-04-08T17:43:23.683Z,97581.00
2023-04-08T17:45:51.920Z,97584.00
2023-04-08T17:48:19.046Z,97591.00
2023-04-08T17:50:45.981Z,97594.00
2023-04-08T17:53:12.929Z,97590.00
2023-04-08T17:55:39.779Z,97589.00
2023-04-08T17:58:06.694Z,97593.00
2023-04-08T18:00:33.568Z,97595.00
2023-04-08T18:03:00.620Z,97605.00
2023-04-08T18:05:28.957Z,97610.00
2023-04-08T18:07:55.839Z,97608.00
2023-04-08T18:10:24.632Z,97618.00
2023-04-08T18:12:57.778Z,97622.00
2023-04-08T18:15:36.161Z,97632.00
2023-04-08T18:18:03.790Z,97632.00
2023-04-08T18:20:31.033Z,97626.00
2023-04-08T18:23:00.181Z,97635.00
2023-04-08T18:25:27.402Z,97634.00
2023-04-08T18:27:54.215Z,97637.00
2023-04-08T18:30:20.994Z,97645.00
2023-04-08T18:32:47.800Z,97640.00
2023-04-08T18:35:14.590Z,97644.00
2023-04-08T18:37:41.540Z,97655.00
2023-04-08T18:40:09.550Z,97666.00
2023-04-08T18:42:36.335Z,97672.00
2023-04-08T18:45:03.185Z,97665.00
2023-04-08T18:47:30.073Z,97669.00
2023-04-08T18:49:57.277Z,97669.00
2023-04-08T18:52:24.022Z,97674.00
2023-04-08T18:54:50.816Z,97678.00
2023-04-08T18:57:17.674Z,97678.00
2023-04-08T18:59:48.326Z,97676.00
2023-04-08T19:02:16.272Z,97687.00
2023-04-08T19:04:43.344Z,97682.00
2023-04-08T19:07:11.008Z,97699.00
2023-04-08T19:09:37.766Z,97686.00
2023-04-08T19:12:04.695Z,97686.00
2023-04-08T19:14:31.541Z,97685.00
2023-04-08T19:16:58.308Z,97693.00
2023-04-08T19:19:25.161Z,97691.00
2023-04-08T19:21:51.939Z,97691.00
2023-04-08T19:24:20.749Z,97689.00
2023-04-08T19:26:49.401Z,97686.00
2023-04-08T19:29:16.548Z,97685.00
2023-04-08T19:31:43.421Z,97690.00
2023-04-08T19:34:10.541Z,97689.00
2023-04-08T19:36:37.327Z,97701.00
2023-04-08T19:39:05.586Z,97691.00
2023-04-08T19:41:32.767Z,97704.00
2023-04-08T19:43:59.515Z,97698.00
2023-04-08T19:46:28.486Z,97705.00
2023-04-08T19:48:58.060Z,97710.00
2023-04-08T19:51:25.041Z,97699.00
2023-04-08T19:53:53.411Z,97710.00
2023-04-08T19:56:21.505Z,97720.00
2023-04-08T19:58:48.420Z,97710.00
2023-04-08T20:01:15.616Z,97715.00
2023-04-08T20:03:43.345Z,97710.00
2023-04-08T20:06:10.296Z,97710.00
2023-04-08T20:08:37.111Z,97719.00
2023-04-08T20:11:04.845Z,97711.00
2023-04-08T20:13:31.659Z,97713.00
2023-04-08T20:15:59.071Z,97718.00
2023-04-08T20:18:25.862Z,97719.00
2023-04-08T20:20:53.250Z,97715.00
2023-04-08T20:23:20.827Z,97721.00
2023-04-08T20:25:47.770Z,97717.00
2023-04-08T20:28:14.521Z,97717.00
2023-04-08T20:30:41.267Z,97718.00
2023-04-08T20:33:08.015Z,97716.00
2023-04-08T20:35:34.808Z,97715.00
2023-04-08T20:38:02.476Z,97719.00
2023-04-08T20:40:29.228Z,97726.00
2023-04-08T20:42:56.023Z,97720.00
2023-04-08T20:45:23.013Z,97718.00
2023-04-08T20:47:49.915Z,97728.00
2023-04-08T20:50:17.149Z,97715.00
2023-04-08T20:52:43.899Z,97714.00
2023-04-08T20:55:10.671Z,97728.00
2023-04-08T20:57:37.506Z,97722.00
2023-04-08T21:00:05.968Z,97731.00
2023-04-08T21:02:33.681Z,97725.00
2023-04-08T21:05:00.821Z,97721.00
2023-04-08T21:07:27.623Z,97726.00
2023-04-08T21:09:54.693Z,97721.00
2023-04-08T21:12:21.468Z,97724.00
2023-04-08T21:14:48.446Z,97734.00
2023-04-08T21:17:15.239Z,97732.00
2023-04-08T21:19:42.168Z,97722.00
2023-04-08T21:22:08.965Z,97736.00
2023-04-08T21:24:36.587Z,97730.00
2023-04-08T21:27:03.491Z,97738.00
2023-04-08T21:29:30.292Z,97731.00
2023-04-08T21:31:57.099Z,97735.00
2023-04-08T21:34:24.001Z,97734.00
2023-04-08T21:36:50.831Z,97724.00
2023-04-08T21:39:17.960Z,97728.00
2023-04-08T21:41:44.825Z,97735.00
2023-04-08T21:44:12.214Z,97723.00
2023-04-08T21:46:39.037Z,97729.00
2023-04-08T21:49:06.151Z,97724.00
2023-04-08T21:51:32.916Z,97724.00
2023-04-08T21:53:59.706Z,97719.00
2023-04-08T21:56:27.526Z,97718.00
2023-04-08T21:58:54.296Z,97716.00
2023-04-08T22:01:21.074Z,97722.00
2023-04-08T22:03:48.153Z,97714.00
2023-04-08T22:06:29.006Z,97715.00
2023-04-08T22:08:58.661Z,97717.00
2023-04-08T22:11:25.442Z,97711.00
2023-04-08T22:13:52.236Z,97698.00
2023-04-08T22:16:19.272Z,97696.00
2023-04-08T22:18:46.618Z,97702.00
2023-04-08T22:21:13.526Z,97712.00
2023-04-08T22:23:40.747Z,97715.00
2023-04-08T22:26:07.638Z,97705.00
2023-04-08T22:28:34.494Z,97716.00
2023-04-08T22:31:01.511Z,97715.00
2023-04-08T22:33:28.396Z,97722.00
2023-04-08T22:35:57.725Z,97708.00
2023-04-08T22:38:24.670Z,97724.00
2023-04-08T22:40:51.462Z,97721.00
2023-04-08T22:43:18.239Z,97722.00
2023-04-08T22:45:45.343Z,97705.00
2023-04-08T22:48:12.259Z,97707.00
2023-04-08T22:50:39.037Z,97714.00
2023-04-08T22:53:05.891Z,97718.00
2023-04-08T22:55:32.844Z,97728.00
2023-04-08T22:57:59.719Z,97718.00
2023-04-08T23:00:26.510Z,97721.00
2023-04-08T23:02:53.363Z,97733.00
2023-04-08T23:05:20.330Z,97729.00
2023-04-08T23:07:47.124Z,97721.00
2023-04-08T23:10:13.919Z,97729.00
2023-04-08T23:12:41.647Z,97729.00
2023-04-08T23:15:08.780Z,97736.00
2023-04-08T23:17:35.582Z,97725.00
2023-04-08T23:20:02.426Z,97735.00
2023-04-08T23:22:29.183Z,97735.00
2023-04-08T23:24:56.249Z,97726.00
2023-04-08T23:27:23.002Z,97718.00
2023-04-08T23:29:49.759Z,97720.00
2023-04-08T23:32:16.557Z,97707.00
2023-04-08T23:34:43.363Z,97708.00
2023-04-08T23:37:10.156Z,97698.00
2023-04-08T23:39:36.918Z,97687.00
2023-04-08T23:42:03.725Z,97699.00
2023-04-08T23:44:30.650Z,97701.00
2023-04-08T23:46:57.464Z,97710.00
2023-04-08T23:49:24.237Z,97712.00
2023-04-08T23:51:51.045Z,97706.00
2023-04-08T23:54:17.840Z,97719.00
2023-04-08T23:56:44.671Z,97713.00
2023-04-08T23:59:11.441Z,97709.00
